Terminal Aerodrome Forecast
Issued by NWS North Platte, NE

Home | Current Version | Previous Version | Graphics & Text | Print | Product List | Glossary On
Versions: 1 2 3 4 5 6 7 8 9 10 11 12 13 14
000
FTUS43 KLBF 050520
TAFVTN
TAF
KVTN 050520Z 0506/0606 18007KT P6SM BKN250
     FM051700 18014G25KT P6SM BKN250 PROB30 0519/0522 3SM TSRA
      BKN070CB
     FM060100 18010KT P6SM SCT250=

USA.gov is the U.S. government's official web portal to all federal, state and local government web resources and services.